Date,TemperatureHighF,TemperatureAvgF,TemperatureLowF,DewpointHighF,DewpointAvgF,DewpointLowF,HumidityHigh,HumidityAvg,HumidityLow,PressureMaxIn,PressureMinIn,WindSpeedMaxMPH,WindSpeedAvgMPH,GustSpeedMaxMPH,PrecipitationSumIn
2013-9-1,77,68,62,72,66,62,100,94,79,29.91,29.80,9,1,9,0.01
2013-9-2,76,66,60,70,65,60,100,95,75,29.91,29.81,7,1,7,0.00
2013-9-3,74,65,57,69,63,57,100,93,75,29.98,29.84,25,2,25,0.20
2013-9-4,74,65,60,68,63,59,100,92,75,30.10,29.97,8,1,8,0.00
2013-9-5,75,66,58,68,62,58,100,89,65,30.12,30.06,7,1,7,0.01
2013-9-6,73,64,60,65,59,44,99,84,49,30.15,30.05,14,3,14,0.00
2013-9-7,73,64,57,66,61,56,100,91,71,30.11,30.01,6,1,6,0.00
2013-9-8,75,65,58,66,62,58,100,91,70,30.02,29.95,7,1,7,0.01
2013-9-9,75,66,61,68,63,60,100,91,75,30.13,30.01,14,3,14,0.00
2013-9-10,76,66,61,70,64,60,100,92,73,30.23,30.12,10,2,10,0.01
2013-9-11,76,66,60,70,64,60,100,94,78,30.21,30.10,8,1,8,0.01
2013-9-12,76,66,61,70,64,61,100,95,76,30.10,29.88,7,2,7,0.01
2013-9-13,51,51,50,49,49,49,94,94,93,29.89,29.88,4,4,6,0.01
2013-9-14,68,56,47,58,51,47,98,87,65,30.13,29.89,8,3,11,0.00
2013-9-15,67,58,52,60,56,51,100,94,74,30.21,30.13,11,4,15,0.00
2013-9-16,72,63,57,64,60,57,100,89,65,30.18,30.08,5,1,7,0.01
2013-9-17,62,57,53,59,55,52,99,94,80,30.25,30.12,11,5,15,0.00
2013-9-18,67,56,51,60,54,50,100,95,78,30.28,30.18,11,3,14,0.00
2013-9-19,72,60,53,66,59,53,100,97,72,30.20,30.11,7,2,8,0.01
2013-9-20,73,63,57,66,61,57,100,93,64,30.12,29.93,6,1,8,0.01
2013-9-21,61,59,55,60,59,55,100,100,98,29.94,29.67,10,2,14,1.27
2013-9-22,68,58,49,62,55,49,100,92,62,29.91,29.74,5,2,7,0.00
2013-9-23,66,56,51,60,55,50,100,95,77,30.07,29.91,6,2,9,0.01
2013-9-24,63,56,51,61,56,51,100,98,90,30.07,29.95,9,3,11,0.01
2013-9-25,56,55,52,56,55,52,100,100,100,29.95,29.85,12,4,14,1.35
2013-9-26,66,57,52,62,56,52,100,97,75,30.05,29.89,8,2,9,0.01
2013-9-27,66,57,50,60,54,47,100,90,66,30.17,30.05,10,2,12,0.00
2013-9-28,62,54,48,57,53,48,100,95,78,30.23,30.15,11,3,13,0.00
2013-9-29,61,52,45,56,51,45,100,96,83,30.18,30.07,7,2,10,0.00
2013-9-30,63,54,48,58,53,48,100,96,78,30.12,30.05,5,1,7,0.00